sensor_id;sensor_type;location;lat;lon;timestamp;P1;durP1;ratioP1;P2;durP2;ratioP2
9485;SDS011;4781;48.776;9.200;2022-11-15T00:01:19;3.17;;;1.70;;
9485;SDS011;4781;48.776;9.200;2022-11-15T00:03:50;8.75;;;2.50;;
9485;SDS011;4781;48.776;9.200;2022-11-15T00:06:18;7.22;;;2.87;;
9485;SDS011;4781;48.776;9.200;2022-11-15T00:08:47;6.97;;;2.58;;
9485;SDS011;4781;48.776;9.200;2022-11-15T00:11:15;4.95;;;2.00;;
9485;SDS011;4781;48.776;9.200;2022-11-15T00:13:43;3.80;;;2.22;;
9485;SDS011;4781;48.776;9.200;2022-11-15T00:16:12;7.55;;;2.15;;
9485;SDS011;4781;48.776;9.200;2022-11-15T00:18:40;5.33;;;2.40;;
9485;SDS011;4781;48.776;9.200;2022-11-15T00:21:12;4.33;;;2.12;;
9485;SDS011;4781;48.776;9.200;2022-11-15T00:23:41;4.87;;;2.15;;
9485;SDS011;4781;48.776;9.200;2022-11-15T00:26:13;4.12;;;1.98;;
9485;SDS011;4781;48.776;9.200;2022-11-15T00:28:42;4.30;;;2.17;;
9485;SDS011;4781;48.776;9.200;2022-11-15T00:31:11;6.40;;;2.60;;
9485;SDS011;4781;48.776;9.200;2022-11-15T00:33:42;4.58;;;2.17;;
9485;SDS011;4781;48.776;9.200;2022-11-15T00:36:11;4.00;;;2.00;;
9485;SDS011;4781;48.776;9.200;2022-11-15T00:38:40;6.72;;;2.17;;
9485;SDS011;4781;48.776;9.200;2022-11-15T00:41:08;5.60;;;1.92;;
9485;SDS011;4781;48.776;9.200;2022-11-15T00:43:37;4.42;;;2.22;;
9485;SDS011;4781;48.776;9.200;2022-11-15T00:46:05;5.03;;;2.65;;
9485;SDS011;4781;48.776;9.200;2022-11-15T00:48:35;4.83;;;1.70;;
9485;SDS011;4781;48.776;9.200;2022-11-15T00:51:04;4.83;;;2.12;;
9485;SDS011;4781;48.776;9.200;2022-11-15T00:53:32;4.45;;;2.12;;
9485;SDS011;4781;48.776;9.200;2022-11-15T00:56:01;3.87;;;1.90;;
9485;SDS011;4781;48.776;9.200;2022-11-15T00:58:29;4.10;;;2.10;;
9485;SDS011;4781;48.776;9.200;2022-11-15T01:01:11;4.15;;;2.05;;
9485;SDS011;4781;48.776;9.200;2022-11-15T01:03:41;7.20;;;2.05;;
9485;SDS011;4781;48.776;9.200;2022-11-15T01:06:10;4.22;;;1.90;;
9485;SDS011;4781;48.776;9.200;2022-11-15T01:08:39;6.20;;;2.30;;
9485;SDS011;4781;48.776;9.200;2022-11-15T01:11:08;4.12;;;1.85;;
9485;SDS011;4781;48.776;9.200;2022-11-15T01:13:39;4.15;;;1.95;;
9485;SDS011;4781;48.776;9.200;2022-11-15T01:16:08;4.05;;;1.77;;
9485;SDS011;4781;48.776;9.200;2022-11-15T01:18:39;4.87;;;1.98;;
9485;SDS011;4781;48.776;9.200;2022-11-15T01:21:08;3.62;;;1.80;;
9485;SDS011;4781;48.776;9.200;2022-11-15T01:23:40;3.60;;;1.95;;
9485;SDS011;4781;48.776;9.200;2022-11-15T01:26:09;4.53;;;2.00;;
9485;SDS011;4781;48.776;9.200;2022-11-15T01:28:41;4.55;;;2.00;;
9485;SDS011;4781;48.776;9.200;2022-11-15T01:31:15;4.35;;;1.65;;
9485;SDS011;4781;48.776;9.200;2022-11-15T01:36:14;3.52;;;1.70;;
9485;SDS011;4781;48.776;9.200;2022-11-15T01:38:52;8.10;;;1.77;;
9485;SDS011;4781;48.776;9.200;2022-11-15T01:41:25;3.55;;;1.57;;
9485;SDS011;4781;48.776;9.200;2022-11-15T01:43:57;5.58;;;1.80;;
9485;SDS011;4781;48.776;9.200;2022-11-15T01:46:58;6.53;;;1.52;;
9485;SDS011;4781;48.776;9.200;2022-11-15T01:49:30;3.80;;;2.00;;
9485;SDS011;4781;48.776;9.200;2022-11-15T01:52:03;9.15;;;2.20;;
9485;SDS011;4781;48.776;9.200;2022-11-15T01:54:34;3.62;;;1.67;;
9485;SDS011;4781;48.776;9.200;2022-11-15T01:57:09;3.47;;;1.80;;
9485;SDS011;4781;48.776;9.200;2022-11-15T01:59:40;2.83;;;1.55;;
9485;SDS011;4781;48.776;9.200;2022-11-15T02:02:10;3.55;;;2.12;;
9485;SDS011;4781;48.776;9.200;2022-11-15T02:04:43;3.05;;;1.67;;
9485;SDS011;4781;48.776;9.200;2022-11-15T02:07:13;3.92;;;1.92;;
9485;SDS011;4781;48.776;9.200;2022-11-15T02:09:46;5.62;;;2.10;;
9485;SDS011;4781;48.776;9.200;2022-11-15T02:12:16;3.40;;;1.60;;
9485;SDS011;4781;48.776;9.200;2022-11-15T02:14:48;3.62;;;1.70;;
9485;SDS011;4781;48.776;9.200;2022-11-15T02:29:55;3.72;;;1.95;;
9485;SDS011;4781;48.776;9.200;2022-11-15T02:32:40;4.53;;;2.17;;
9485;SDS011;4781;48.776;9.200;2022-11-15T02:41:10;4.00;;;1.60;;
9485;SDS011;4781;48.776;9.200;2022-11-15T02:44:07;3.90;;;1.57;;
9485;SDS011;4781;48.776;9.200;2022-11-15T02:46:43;3.12;;;1.60;;
9485;SDS011;4781;48.776;9.200;2022-11-15T02:49:39;4.22;;;1.45;;
9485;SDS011;4781;48.776;9.200;2022-11-15T02:52:18;3.30;;;1.70;;
9485;SDS011;4781;48.776;9.200;2022-11-15T02:54:59;3.65;;;1.50;;
9485;SDS011;4781;48.776;9.200;2022-11-15T03:00:54;3.02;;;1.55;;
9485;SDS011;4781;48.776;9.200;2022-11-15T03:03:59;2.83;;;1.47;;
9485;SDS011;4781;48.776;9.200;2022-11-15T03:06:32;4.20;;;1.57;;
9485;SDS011;4781;48.776;9.200;2022-11-15T03:09:35;4.80;;;1.70;;
9485;SDS011;4781;48.776;9.200;2022-11-15T03:12:36;3.10;;;1.60;;
9485;SDS011;4781;48.776;9.200;2022-11-15T03:15:18;2.62;;;1.40;;
9485;SDS011;4781;48.776;9.200;2022-11-15T03:18:02;5.00;;;1.90;;
9485;SDS011;4781;48.776;9.200;2022-11-15T03:20:37;2.45;;;1.47;;
9485;SDS011;4781;48.776;9.200;2022-11-15T03:23:08;3.83;;;1.80;;
9485;SDS011;4781;48.776;9.200;2022-11-15T03:25:41;4.28;;;1.72;;
9485;SDS011;4781;48.776;9.200;2022-11-15T03:28:13;3.37;;;1.62;;
9485;SDS011;4781;48.776;9.200;2022-11-15T03:30:48;3.25;;;1.70;;
9485;SDS011;4781;48.776;9.200;2022-11-15T03:33:18;3.10;;;1.60;;
9485;SDS011;4781;48.776;9.200;2022-11-15T03:35:48;4.17;;;1.40;;
9485;SDS011;4781;48.776;9.200;2022-11-15T03:38:22;6.33;;;1.70;;
9485;SDS011;4781;48.776;9.200;2022-11-15T03:40:55;5.12;;;2.10;;
9485;SDS011;4781;48.776;9.200;2022-11-15T03:43:30;7.55;;;2.10;;
9485;SDS011;4781;48.776;9.200;2022-11-15T03:46:19;5.10;;;1.82;;
9485;SDS011;4781;48.776;9.200;2022-11-15T03:49:34;3.90;;;1.70;;
9485;SDS011;4781;48.776;9.200;2022-11-15T03:51:44;3.72;;;1.67;;
9485;SDS011;4781;48.776;9.200;2022-11-15T03:54:13;3.40;;;1.52;;
9485;SDS011;4781;48.776;9.200;2022-11-15T03:56:41;4.15;;;1.50;;
9485;SDS011;4781;48.776;9.200;2022-11-15T03:59:10;3.22;;;1.50;;
9485;SDS011;4781;48.776;9.200;2022-11-15T04:01:38;3.70;;;2.08;;
9485;SDS011;4781;48.776;9.200;2022-11-15T04:04:07;3.92;;;1.90;;
9485;SDS011;4781;48.776;9.200;2022-11-15T04:06:35;3.47;;;1.72;;
9485;SDS011;4781;48.776;9.200;2022-11-15T04:09:03;3.55;;;1.57;;
9485;SDS011;4781;48.776;9.200;2022-11-15T04:11:32;3.35;;;1.57;;
9485;SDS011;4781;48.776;9.200;2022-11-15T04:14:00;4.22;;;1.87;;
9485;SDS011;4781;48.776;9.200;2022-11-15T04:16:29;3.72;;;1.92;;
9485;SDS011;4781;48.776;9.200;2022-11-15T04:18:57;3.45;;;1.75;;
9485;SDS011;4781;48.776;9.200;2022-11-15T04:21:43;2.87;;;1.60;;
9485;SDS011;4781;48.776;9.200;2022-11-15T04:24:29;3.35;;;1.50;;
9485;SDS011;4781;48.776;9.200;2022-11-15T04:26:58;4.75;;;1.72;;
9485;SDS011;4781;48.776;9.200;2022-11-15T04:29:27;4.33;;;2.10;;
9485;SDS011;4781;48.776;9.200;2022-11-15T04:32:02;2.70;;;1.43;;
9485;SDS011;4781;48.776;9.200;2022-11-15T04:34:32;5.75;;;1.57;;
9485;SDS011;4781;48.776;9.200;2022-11-15T04:37:01;4.25;;;1.75;;
9485;SDS011;4781;48.776;9.200;2022-11-15T04:39:41;5.40;;;1.85;;
9485;SDS011;4781;48.776;9.200;2022-11-15T04:42:10;5.60;;;1.62;;
9485;SDS011;4781;48.776;9.200;2022-11-15T04:44:38;5.62;;;1.95;;
9485;SDS011;4781;48.776;9.200;2022-11-15T04:47:07;4.20;;;1.75;;
9485;SDS011;4781;48.776;9.200;2022-11-15T04:49:35;5.37;;;1.92;;
9485;SDS011;4781;48.776;9.200;2022-11-15T04:52:04;3.67;;;1.60;;
9485;SDS011;4781;48.776;9.200;2022-11-15T04:54:32;3.65;;;1.75;;
9485;SDS011;4781;48.776;9.200;2022-11-15T04:57:00;5.05;;;1.65;;
9485;SDS011;4781;48.776;9.200;2022-11-15T04:59:29;4.70;;;1.72;;
9485;SDS011;4781;48.776;9.200;2022-11-15T05:01:57;8.60;;;1.60;;
9485;SDS011;4781;48.776;9.200;2022-11-15T05:04:26;3.08;;;1.55;;
9485;SDS011;4781;48.776;9.200;2022-11-15T05:06:54;4.47;;;1.82;;
9485;SDS011;4781;48.776;9.200;2022-11-15T05:09:22;3.65;;;1.80;;
9485;SDS011;4781;48.776;9.200;2022-11-15T05:11:51;4.53;;;1.67;;
9485;SDS011;4781;48.776;9.200;2022-11-15T05:14:19;2.67;;;1.55;;
9485;SDS011;4781;48.776;9.200;2022-11-15T05:16:47;3.85;;;1.70;;
9485;SDS011;4781;48.776;9.200;2022-11-15T05:19:16;3.62;;;1.75;;
9485;SDS011;4781;48.776;9.200;2022-11-15T05:21:44;2.77;;;1.40;;
9485;SDS011;4781;48.776;9.200;2022-11-15T05:24:13;4.30;;;1.87;;
9485;SDS011;4781;48.776;9.200;2022-11-15T05:26:42;3.92;;;1.40;;
9485;SDS011;4781;48.776;9.200;2022-11-15T05:29:10;3.17;;;1.40;;
9485;SDS011;4781;48.776;9.200;2022-11-15T05:31:39;4.10;;;1.70;;
9485;SDS011;4781;48.776;9.200;2022-11-15T05:34:08;4.62;;;1.72;;
9485;SDS011;4781;48.776;9.200;2022-11-15T05:36:37;4.05;;;1.40;;
9485;SDS011;4781;48.776;9.200;2022-11-15T05:39:08;2.75;;;1.17;;
9485;SDS011;4781;48.776;9.200;2022-11-15T05:41:38;3.30;;;1.40;;
9485;SDS011;4781;48.776;9.200;2022-11-15T05:44:10;3.98;;;1.70;;
9485;SDS011;4781;48.776;9.200;2022-11-15T05:46:41;3.98;;;1.70;;
9485;SDS011;4781;48.776;9.200;2022-11-15T05:49:11;3.40;;;1.70;;
9485;SDS011;4781;48.776;9.200;2022-11-15T05:51:42;3.12;;;1.30;;
9485;SDS011;4781;48.776;9.200;2022-11-15T05:54:13;3.92;;;1.65;;
9485;SDS011;4781;48.776;9.200;2022-11-15T05:56:43;2.83;;;1.67;;
9485;SDS011;4781;48.776;9.200;2022-11-15T05:59:12;3.50;;;1.77;;
9485;SDS011;4781;48.776;9.200;2022-11-15T06:01:40;5.55;;;1.92;;
9485;SDS011;4781;48.776;9.200;2022-11-15T06:04:09;5.47;;;1.67;;
9485;SDS011;4781;48.776;9.200;2022-11-15T06:06:37;4.20;;;1.85;;
9485;SDS011;4781;48.776;9.200;2022-11-15T06:09:06;6.40;;;1.82;;
9485;SDS011;4781;48.776;9.200;2022-11-15T06:11:34;3.25;;;1.32;;
9485;SDS011;4781;48.776;9.200;2022-11-15T06:14:02;4.10;;;1.72;;
9485;SDS011;4781;48.776;9.200;2022-11-15T06:16:31;3.12;;;1.52;;
9485;SDS011;4781;48.776;9.200;2022-11-15T06:19:00;3.45;;;1.62;;
9485;SDS011;4781;48.776;9.200;2022-11-15T06:21:29;5.25;;;1.70;;
9485;SDS011;4781;48.776;9.200;2022-11-15T06:23:57;5.58;;;1.65;;
9485;SDS011;4781;48.776;9.200;2022-11-15T06:26:25;3.65;;;1.60;;
9485;SDS011;4781;48.776;9.200;2022-11-15T06:28:54;3.80;;;1.70;;
9485;SDS011;4781;48.776;9.200;2022-11-15T06:31:22;3.00;;;1.57;;
9485;SDS011;4781;48.776;9.200;2022-11-15T06:33:51;3.30;;;1.47;;
9485;SDS011;4781;48.776;9.200;2022-11-15T06:36:19;5.90;;;2.00;;
9485;SDS011;4781;48.776;9.200;2022-11-15T06:38:47;4.42;;;1.75;;
9485;SDS011;4781;48.776;9.200;2022-11-15T06:41:16;3.02;;;1.60;;
9485;SDS011;4781;48.776;9.200;2022-11-15T06:43:46;5.72;;;1.77;;
9485;SDS011;4781;48.776;9.200;2022-11-15T06:46:15;7.03;;;1.95;;
9485;SDS011;4781;48.776;9.200;2022-11-15T06:48:43;3.58;;;1.95;;
9485;SDS011;4781;48.776;9.200;2022-11-15T06:51:11;4.33;;;1.80;;
9485;SDS011;4781;48.776;9.200;2022-11-15T06:53:40;6.08;;;1.70;;
9485;SDS011;4781;48.776;9.200;2022-11-15T06:56:08;3.35;;;1.82;;
9485;SDS011;4781;48.776;9.200;2022-11-15T06:58:36;3.80;;;1.85;;
9485;SDS011;4781;48.776;9.200;2022-11-15T07:01:06;5.72;;;2.35;;
9485;SDS011;4781;48.776;9.200;2022-11-15T07:03:38;4.85;;;2.17;;
9485;SDS011;4781;48.776;9.200;2022-11-15T07:06:08;4.20;;;2.15;;
9485;SDS011;4781;48.776;9.200;2022-11-15T07:08:37;5.35;;;2.33;;
9485;SDS011;4781;48.776;9.200;2022-11-15T07:11:07;3.22;;;1.60;;
9485;SDS011;4781;48.776;9.200;2022-11-15T07:13:36;7.70;;;2.00;;
9485;SDS011;4781;48.776;9.200;2022-11-15T07:16:06;5.55;;;1.70;;
9485;SDS011;4781;48.776;9.200;2022-11-15T07:18:37;4.40;;;1.98;;
9485;SDS011;4781;48.776;9.200;2022-11-15T07:21:07;4.90;;;2.10;;
9485;SDS011;4781;48.776;9.200;2022-11-15T07:23:57;3.90;;;2.37;;
9485;SDS011;4781;48.776;9.200;2022-11-15T07:26:25;5.70;;;1.60;;
9485;SDS011;4781;48.776;9.200;2022-11-15T07:28:54;3.70;;;1.87;;
9485;SDS011;4781;48.776;9.200;2022-11-15T07:31:22;5.47;;;2.10;;
9485;SDS011;4781;48.776;9.200;2022-11-15T07:33:51;8.28;;;2.22;;
9485;SDS011;4781;48.776;9.200;2022-11-15T07:36:19;4.45;;;2.45;;
9485;SDS011;4781;48.776;9.200;2022-11-15T07:38:48;4.67;;;2.20;;
9485;SDS011;4781;48.776;9.200;2022-11-15T07:41:16;6.33;;;2.33;;
9485;SDS011;4781;48.776;9.200;2022-11-15T07:43:44;9.80;;;2.37;;
9485;SDS011;4781;48.776;9.200;2022-11-15T07:46:13;6.90;;;2.37;;
9485;SDS011;4781;48.776;9.200;2022-11-15T07:48:41;5.40;;;2.50;;
9485;SDS011;4781;48.776;9.200;2022-11-15T07:51:15;4.90;;;2.67;;
9485;SDS011;4781;48.776;9.200;2022-11-15T07:53:44;4.90;;;2.75;;
9485;SDS011;4781;48.776;9.200;2022-11-15T07:56:12;5.28;;;2.50;;
9485;SDS011;4781;48.776;9.200;2022-11-15T07:58:41;9.83;;;3.60;;
9485;SDS011;4781;48.776;9.200;2022-11-15T08:01:09;8.25;;;3.62;;
9485;SDS011;4781;48.776;9.200;2022-11-15T08:03:38;6.67;;;3.25;;
9485;SDS011;4781;48.776;9.200;2022-11-15T08:06:07;8.15;;;3.58;;
9485;SDS011;4781;48.776;9.200;2022-11-15T08:08:35;9.15;;;3.05;;
9485;SDS011;4781;48.776;9.200;2022-11-15T08:11:04;9.60;;;3.42;;
9485;SDS011;4781;48.776;9.200;2022-11-15T08:13:32;6.53;;;3.12;;
9485;SDS011;4781;48.776;9.200;2022-11-15T08:16:01;7.50;;;3.25;;
9485;SDS011;4781;48.776;9.200;2022-11-15T08:18:31;7.55;;;3.45;;
9485;SDS011;4781;48.776;9.200;2022-11-15T08:21:02;7.87;;;3.00;;
9485;SDS011;4781;48.776;9.200;2022-11-15T08:23:31;6.20;;;2.92;;
9485;SDS011;4781;48.776;9.200;2022-11-15T08:26:00;8.20;;;3.08;;
9485;SDS011;4781;48.776;9.200;2022-11-15T08:28:30;6.37;;;2.98;;
9485;SDS011;4781;48.776;9.200;2022-11-15T08:30:59;6.03;;;2.83;;
9485;SDS011;4781;48.776;9.200;2022-11-15T08:33:28;5.47;;;2.40;;
9485;SDS011;4781;48.776;9.200;2022-11-15T08:35:57;9.13;;;2.50;;
9485;SDS011;4781;48.776;9.200;2022-11-15T08:38:27;8.58;;;3.77;;
9485;SDS011;4781;48.776;9.200;2022-11-15T08:41:00;12.47;;;4.97;;
9485;SDS011;4781;48.776;9.200;2022-11-15T08:43:31;8.20;;;3.80;;
9485;SDS011;4781;48.776;9.200;2022-11-15T08:46:00;8.93;;;4.35;;
9485;SDS011;4781;48.776;9.200;2022-11-15T08:48:29;9.28;;;3.40;;
9485;SDS011;4781;48.776;9.200;2022-11-15T08:50:57;9.88;;;4.00;;
9485;SDS011;4781;48.776;9.200;2022-11-15T08:53:26;10.88;;;4.50;;
9485;SDS011;4781;48.776;9.200;2022-11-15T08:55:54;8.93;;;4.50;;
9485;SDS011;4781;48.776;9.200;2022-11-15T08:58:22;11.68;;;4.03;;
9485;SDS011;4781;48.776;9.200;2022-11-15T09:00:51;9.23;;;3.65;;
9485;SDS011;4781;48.776;9.200;2022-11-15T09:03:19;8.30;;;3.10;;
9485;SDS011;4781;48.776;9.200;2022-11-15T09:05:48;5.75;;;3.27;;
9485;SDS011;4781;48.776;9.200;2022-11-15T09:08:21;6.72;;;3.83;;
9485;SDS011;4781;48.776;9.200;2022-11-15T09:10:50;8.75;;;3.30;;
9485;SDS011;4781;48.776;9.200;2022-11-15T09:13:18;9.10;;;3.00;;
9485;SDS011;4781;48.776;9.200;2022-11-15T09:15:47;11.57;;;3.35;;
9485;SDS011;4781;48.776;9.200;2022-11-15T09:18:15;8.48;;;3.40;;
9485;SDS011;4781;48.776;9.200;2022-11-15T09:20:44;6.87;;;3.10;;
9485;SDS011;4781;48.776;9.200;2022-11-15T09:23:12;9.85;;;3.40;;
9485;SDS011;4781;48.776;9.200;2022-11-15T09:25:40;9.00;;;3.30;;
9485;SDS011;4781;48.776;9.200;2022-11-15T09:28:09;8.05;;;3.12;;
9485;SDS011;4781;48.776;9.200;2022-11-15T09:30:37;7.20;;;3.40;;
9485;SDS011;4781;48.776;9.200;2022-11-15T09:33:12;7.08;;;3.92;;
9485;SDS011;4781;48.776;9.200;2022-11-15T09:35:37;9.68;;;4.25;;
9485;SDS011;4781;48.776;9.200;2022-11-15T09:38:06;7.00;;;3.55;;
9485;SDS011;4781;48.776;9.200;2022-11-15T09:40:36;7.80;;;3.85;;
9485;SDS011;4781;48.776;9.200;2022-11-15T09:43:09;6.17;;;3.27;;
9485;SDS011;4781;48.776;9.200;2022-11-15T09:45:56;6.10;;;3.17;;
9485;SDS011;4781;48.776;9.200;2022-11-15T09:48:48;6.20;;;3.08;;
9485;SDS011;4781;48.776;9.200;2022-11-15T09:51:27;5.97;;;3.27;;
9485;SDS011;4781;48.776;9.200;2022-11-15T09:54:03;11.57;;;3.15;;
9485;SDS011;4781;48.776;9.200;2022-11-15T09:56:40;7.87;;;3.92;;
9485;SDS011;4781;48.776;9.200;2022-11-15T09:59:17;10.88;;;3.17;;
9485;SDS011;4781;48.776;9.200;2022-11-15T10:05:13;8.83;;;3.60;;
9485;SDS011;4781;48.776;9.200;2022-11-15T10:10:47;5.20;;;3.02;;
9485;SDS011;4781;48.776;9.200;2022-11-15T10:13:32;9.23;;;4.25;;
9485;SDS011;4781;48.776;9.200;2022-11-15T10:16:20;8.08;;;3.90;;
9485;SDS011;4781;48.776;9.200;2022-11-15T10:19:23;8.73;;;3.58;;
9485;SDS011;4781;48.776;9.200;2022-11-15T10:25:30;7.35;;;3.55;;
9485;SDS011;4781;48.776;9.200;2022-11-15T10:27:38;6.85;;;3.10;;
9485;SDS011;4781;48.776;9.200;2022-11-15T10:30:12;13.78;;;3.58;;
9485;SDS011;4781;48.776;9.200;2022-11-15T10:35:47;8.13;;;3.30;;
9485;SDS011;4781;48.776;9.200;2022-11-15T10:38:07;7.80;;;3.00;;
9485;SDS011;4781;48.776;9.200;2022-11-15T10:40:38;8.45;;;3.20;;
9485;SDS011;4781;48.776;9.200;2022-11-15T10:45:45;10.43;;;3.60;;
9485;SDS011;4781;48.776;9.200;2022-11-15T10:50:50;12.40;;;3.70;;
9485;SDS011;4781;48.776;9.200;2022-11-15T10:53:25;5.15;;;2.67;;
9485;SDS011;4781;48.776;9.200;2022-11-15T10:55:57;6.50;;;2.95;;
9485;SDS011;4781;48.776;9.200;2022-11-15T10:58:33;4.87;;;2.25;;
9485;SDS011;4781;48.776;9.200;2022-11-15T11:01:08;4.50;;;2.15;;
9485;SDS011;4781;48.776;9.200;2022-11-15T11:03:40;5.72;;;2.75;;
9485;SDS011;4781;48.776;9.200;2022-11-15T11:06:12;6.83;;;3.77;;
9485;SDS011;4781;48.776;9.200;2022-11-15T11:08:54;11.00;;;3.00;;
9485;SDS011;4781;48.776;9.200;2022-11-15T11:11:45;12.30;;;4.33;;
9485;SDS011;4781;48.776;9.200;2022-11-15T11:14:21;20.90;;;6.20;;
9485;SDS011;4781;48.776;9.200;2022-11-15T11:17:16;9.10;;;4.22;;
9485;SDS011;4781;48.776;9.200;2022-11-15T11:19:52;10.63;;;4.60;;
9485;SDS011;4781;48.776;9.200;2022-11-15T11:22:42;5.03;;;2.58;;
9485;SDS011;4781;48.776;9.200;2022-11-15T11:31:31;5.50;;;1.92;;
9485;SDS011;4781;48.776;9.200;2022-11-15T11:40:10;8.70;;;2.83;;
9485;SDS011;4781;48.776;9.200;2022-11-15T11:42:47;4.72;;;2.00;;
9485;SDS011;4781;48.776;9.200;2022-11-15T11:53:56;7.05;;;2.60;;
9485;SDS011;4781;48.776;9.200;2022-11-15T11:56:57;10.85;;;4.15;;
9485;SDS011;4781;48.776;9.200;2022-11-15T11:59:37;9.70;;;4.03;;
9485;SDS011;4781;48.776;9.200;2022-11-15T12:02:31;10.48;;;3.58;;
9485;SDS011;4781;48.776;9.200;2022-11-15T12:07:58;8.45;;;3.17;;
9485;SDS011;4781;48.776;9.200;2022-11-15T12:10:33;6.25;;;2.42;;
9485;SDS011;4781;48.776;9.200;2022-11-15T12:13:07;5.67;;;3.20;;
9485;SDS011;4781;48.776;9.200;2022-11-15T12:15:56;6.00;;;2.65;;
9485;SDS011;4781;48.776;9.200;2022-11-15T12:18:44;6.50;;;3.12;;
9485;SDS011;4781;48.776;9.200;2022-11-15T12:24:03;9.63;;;2.50;;
9485;SDS011;4781;48.776;9.200;2022-11-15T12:26:32;4.50;;;2.20;;
9485;SDS011;4781;48.776;9.200;2022-11-15T12:29:15;5.75;;;2.10;;
9485;SDS011;4781;48.776;9.200;2022-11-15T12:32:55;6.62;;;1.90;;
9485;SDS011;4781;48.776;9.200;2022-11-15T12:34:47;3.37;;;1.82;;
9485;SDS011;4781;48.776;9.200;2022-11-15T12:43:04;4.28;;;1.90;;
9485;SDS011;4781;48.776;9.200;2022-11-15T12:45:42;5.30;;;2.10;;
9485;SDS011;4781;48.776;9.200;2022-11-15T12:50:57;5.28;;;1.62;;
9485;SDS011;4781;48.776;9.200;2022-11-15T12:53:28;4.58;;;1.87;;
9485;SDS011;4781;48.776;9.200;2022-11-15T12:58:46;4.65;;;1.95;;
9485;SDS011;4781;48.776;9.200;2022-11-15T13:12:10;8.03;;;2.37;;
9485;SDS011;4781;48.776;9.200;2022-11-15T13:14:59;6.67;;;2.35;;
9485;SDS011;4781;48.776;9.200;2022-11-15T13:22:52;5.90;;;1.85;;
9485;SDS011;4781;48.776;9.200;2022-11-15T13:28:35;6.53;;;2.30;;
9485;SDS011;4781;48.776;9.200;2022-11-15T13:31:57;5.10;;;1.98;;
9485;SDS011;4781;48.776;9.200;2022-11-15T13:33:54;5.05;;;1.95;;
9485;SDS011;4781;48.776;9.200;2022-11-15T13:36:30;5.35;;;2.85;;
9485;SDS011;4781;48.776;9.200;2022-11-15T13:39:04;6.45;;;2.40;;
9485;SDS011;4781;48.776;9.200;2022-11-15T13:41:53;3.40;;;1.80;;
9485;SDS011;4781;48.776;9.200;2022-11-15T13:44:32;4.72;;;2.20;;
9485;SDS011;4781;48.776;9.200;2022-11-15T13:47:35;4.53;;;1.82;;
9485;SDS011;4781;48.776;9.200;2022-11-15T13:49:41;4.50;;;2.02;;
9485;SDS011;4781;48.776;9.200;2022-11-15T13:52:11;3.90;;;1.92;;
9485;SDS011;4781;48.776;9.200;2022-11-15T13:54:43;4.40;;;2.05;;
9485;SDS011;4781;48.776;9.200;2022-11-15T13:57:22;5.87;;;2.17;;
9485;SDS011;4781;48.776;9.200;2022-11-15T13:59:57;4.75;;;2.25;;
9485;SDS011;4781;48.776;9.200;2022-11-15T14:02:32;4.70;;;2.20;;
9485;SDS011;4781;48.776;9.200;2022-11-15T14:05:11;4.00;;;2.10;;
9485;SDS011;4781;48.776;9.200;2022-11-15T14:07:57;4.12;;;2.08;;
9485;SDS011;4781;48.776;9.200;2022-11-15T14:13:04;9.60;;;2.37;;
9485;SDS011;4781;48.776;9.200;2022-11-15T14:15:54;4.47;;;2.30;;
9485;SDS011;4781;48.776;9.200;2022-11-15T14:18:43;5.42;;;2.33;;
9485;SDS011;4781;48.776;9.200;2022-11-15T14:21:17;10.13;;;2.95;;
9485;SDS011;4781;48.776;9.200;2022-11-15T14:23:46;8.83;;;2.62;;
9485;SDS011;4781;48.776;9.200;2022-11-15T14:26:29;5.58;;;2.77;;
9485;SDS011;4781;48.776;9.200;2022-11-15T14:32:05;4.10;;;2.22;;
9485;SDS011;4781;48.776;9.200;2022-11-15T14:34:42;5.35;;;2.60;;
9485;SDS011;4781;48.776;9.200;2022-11-15T14:37:16;7.12;;;2.65;;
9485;SDS011;4781;48.776;9.200;2022-11-15T14:39:56;6.28;;;2.50;;
9485;SDS011;4781;48.776;9.200;2022-11-15T14:42:25;5.87;;;2.60;;
9485;SDS011;4781;48.776;9.200;2022-11-15T14:44:53;7.17;;;3.00;;
9485;SDS011;4781;48.776;9.200;2022-11-15T14:47:21;3.83;;;2.00;;
9485;SDS011;4781;48.776;9.200;2022-11-15T14:49:50;5.60;;;2.10;;
9485;SDS011;4781;48.776;9.200;2022-11-15T14:54:58;4.25;;;2.15;;
9485;SDS011;4781;48.776;9.200;2022-11-15T14:57:28;8.33;;;2.60;;
9485;SDS011;4781;48.776;9.200;2022-11-15T14:59:57;4.22;;;2.12;;
9485;SDS011;4781;48.776;9.200;2022-11-15T15:02:26;7.87;;;2.40;;
9485;SDS011;4781;48.776;9.200;2022-11-15T15:04:55;4.50;;;2.20;;
9485;SDS011;4781;48.776;9.200;2022-11-15T15:07:25;4.15;;;2.05;;
9485;SDS011;4781;48.776;9.200;2022-11-15T15:09:53;4.97;;;2.30;;
9485;SDS011;4781;48.776;9.200;2022-11-15T15:12:22;11.33;;;2.65;;
9485;SDS011;4781;48.776;9.200;2022-11-15T15:14:51;8.10;;;3.05;;
9485;SDS011;4781;48.776;9.200;2022-11-15T15:17:19;5.72;;;2.50;;
9485;SDS011;4781;48.776;9.200;2022-11-15T15:19:48;7.83;;;2.62;;
9485;SDS011;4781;48.776;9.200;2022-11-15T15:22:17;4.08;;;2.17;;
9485;SDS011;4781;48.776;9.200;2022-11-15T15:24:51;4.75;;;2.52;;
9485;SDS011;4781;48.776;9.200;2022-11-15T15:27:19;5.70;;;2.75;;
9485;SDS011;4781;48.776;9.200;2022-11-15T15:29:48;6.37;;;2.62;;
9485;SDS011;4781;48.776;9.200;2022-11-15T15:32:16;5.95;;;3.00;;
9485;SDS011;4781;48.776;9.200;2022-11-15T15:34:44;6.65;;;2.90;;
9485;SDS011;4781;48.776;9.200;2022-11-15T15:37:23;5.90;;;2.70;;
9485;SDS011;4781;48.776;9.200;2022-11-15T15:39:56;6.00;;;2.85;;
9485;SDS011;4781;48.776;9.200;2022-11-15T15:42:24;7.58;;;2.90;;
9485;SDS011;4781;48.776;9.200;2022-11-15T15:44:53;5.67;;;2.90;;
9485;SDS011;4781;48.776;9.200;2022-11-15T15:47:22;11.48;;;3.42;;
9485;SDS011;4781;48.776;9.200;2022-11-15T15:49:50;6.85;;;3.22;;
9485;SDS011;4781;48.776;9.200;2022-11-15T15:52:19;6.87;;;2.87;;
9485;SDS011;4781;48.776;9.200;2022-11-15T15:54:47;8.28;;;3.30;;
9485;SDS011;4781;48.776;9.200;2022-11-15T15:57:15;7.00;;;3.22;;
9485;SDS011;4781;48.776;9.200;2022-11-15T15:59:44;6.22;;;3.10;;
9485;SDS011;4781;48.776;9.200;2022-11-15T16:02:12;9.30;;;3.70;;
9485;SDS011;4781;48.776;9.200;2022-11-15T16:04:41;6.70;;;3.37;;
9485;SDS011;4781;48.776;9.200;2022-11-15T16:07:15;7.90;;;3.37;;
9485;SDS011;4781;48.776;9.200;2022-11-15T16:09:43;8.58;;;3.12;;
9485;SDS011;4781;48.776;9.200;2022-11-15T16:12:30;7.40;;;3.12;;
9485;SDS011;4781;48.776;9.200;2022-11-15T16:15:00;10.70;;;3.77;;
9485;SDS011;4781;48.776;9.200;2022-11-15T16:17:37;9.33;;;4.00;;
9485;SDS011;4781;48.776;9.200;2022-11-15T16:20:04;6.45;;;3.42;;
9485;SDS011;4781;48.776;9.200;2022-11-15T16:22:33;7.12;;;2.90;;
9485;SDS011;4781;48.776;9.200;2022-11-15T16:25:01;10.78;;;3.65;;
9485;SDS011;4781;48.776;9.200;2022-11-15T16:27:30;6.75;;;2.95;;
9485;SDS011;4781;48.776;9.200;2022-11-15T16:29:58;5.45;;;2.60;;
9485;SDS011;4781;48.776;9.200;2022-11-15T16:32:27;5.37;;;2.65;;
9485;SDS011;4781;48.776;9.200;2022-11-15T16:34:55;5.53;;;2.52;;
9485;SDS011;4781;48.776;9.200;2022-11-15T16:37:24;6.92;;;2.72;;
9485;SDS011;4781;48.776;9.200;2022-11-15T16:39:52;7.12;;;2.80;;
9485;SDS011;4781;48.776;9.200;2022-11-15T16:42:20;5.83;;;2.70;;
9485;SDS011;4781;48.776;9.200;2022-11-15T16:44:49;6.03;;;2.90;;
9485;SDS011;4781;48.776;9.200;2022-11-15T16:47:17;7.03;;;2.77;;
9485;SDS011;4781;48.776;9.200;2022-11-15T16:49:47;5.87;;;2.65;;
9485;SDS011;4781;48.776;9.200;2022-11-15T16:52:16;6.53;;;2.52;;
9485;SDS011;4781;48.776;9.200;2022-11-15T16:54:44;5.35;;;2.67;;
9485;SDS011;4781;48.776;9.200;2022-11-15T16:57:12;6.05;;;3.10;;
9485;SDS011;4781;48.776;9.200;2022-11-15T16:59:41;6.95;;;2.50;;
9485;SDS011;4781;48.776;9.200;2022-11-15T17:02:15;7.15;;;3.15;;
9485;SDS011;4781;48.776;9.200;2022-11-15T17:04:39;4.97;;;2.70;;
9485;SDS011;4781;48.776;9.200;2022-11-15T17:07:08;7.35;;;3.02;;
9485;SDS011;4781;48.776;9.200;2022-11-15T17:09:36;8.58;;;3.30;;
9485;SDS011;4781;48.776;9.200;2022-11-15T17:12:05;6.28;;;2.98;;
9485;SDS011;4781;48.776;9.200;2022-11-15T17:14:36;7.42;;;3.22;;
9485;SDS011;4781;48.776;9.200;2022-11-15T17:17:04;7.30;;;2.65;;
9485;SDS011;4781;48.776;9.200;2022-11-15T17:19:34;6.12;;;3.12;;
9485;SDS011;4781;48.776;9.200;2022-11-15T17:22:02;5.35;;;2.50;;
9485;SDS011;4781;48.776;9.200;2022-11-15T17:24:30;15.43;;;9.08;;
9485;SDS011;4781;48.776;9.200;2022-11-15T17:26:59;22.42;;;11.38;;
9485;SDS011;4781;48.776;9.200;2022-11-15T17:29:27;23.12;;;11.00;;
9485;SDS011;4781;48.776;9.200;2022-11-15T17:31:56;15.90;;;7.53;;
9485;SDS011;4781;48.776;9.200;2022-11-15T17:34:24;12.25;;;5.12;;